Cassville, MO

10:38 PM CST on December 25, 2014 (GMT -0600)
Farm Road 2100 | Change Station
CLOSE
Current Station
Personal Weather Station
Location: Wheaton, MO
Elevation: 1335 ft
Nearby Weather Stations

Elev 1335 ft 36.79 °N, 94.07 °W | Updated 2 seconds ago

Partly Cloudy
Partly Cloudy
45.7 °F
Feels Like 40 °F
N
12.0
Wind Variable Wind from South
Gusts 19.0 mph

Today
High -- | Low -- °F
--% Chance of Precip.
Yesterday
High -- | Low -- °F
Precip. -- in
7:25 AM 5:05 PM
Waxing Crescent, 22% visible
Pressure 29.89 in
Visibility 10.0 miles
Clouds Clear
Windchill 40 °F
Dew Point 34 °F
Humidity 63%
Rainfall 0.00 in
Snow Depth Not available.
UV 0 out of 12
Pollen 5.10 out of 12
Air Quality Not available.
Flu Activity Not available.
METAR KHFJ 260415Z AUTO 17012G20KT 10SM CLR 08/00 A2989 RMK AO2

More Conditions Fewer Conditions

Pressure 29.89 in
Visibility 10.0 miles
Clouds Clear
Windchill 40 °F
Dew Point 34 °F
Humidity 63%
Rainfall 0.00 in
Snow Depth Not available.
UV 0 out of 12
Pollen 5.10 out of 12
Air Quality Not available.
Flu Activity Not available.
METAR KHFJ 260415Z AUTO 17012G20KT 10SM CLR 08/00 A2989 RMK AO2

More Conditions Fewer Conditions

10-Day Weather Forecast

Almanac

Astronomy

Dec. 25, 2014 Rise Set
Actual Time
Civil Twilight
Nautical Twilight
Astronomical Twilight
Moon
Length of Visible Light
Length of Day
Tomorrow will be .
, % of the Moon is Illuminated

Today's Extremes

State Highs State Lows

Community

WunderPhotos

Upload Photos

1,780,537 photos uploaded!

WunderBlogs® & News

Nearby

Air Quality

  Air Quality AQ Index Pollutant
Not available.

Snow Depth

Station Depth Elevation

Earthquake Activity

City Distance Mag. Time & Date
Minimum magnitude displayed is 2.5.

Coastal Water Temperatures

Place Temperature

Nearby Weather Stations